sensor_id;sensor_type;location;lat;lon;timestamp;P1;durP1;ratioP1;P2;durP2;ratioP2
41532;SDS011;27262;-35.248;149.138;2023-05-07T00:02:31;0.32;;;0.17;;
41532;SDS011;27262;-35.248;149.138;2023-05-07T00:05:02;0.28;;;0.20;;
41532;SDS011;27262;-35.248;149.138;2023-05-07T00:07:33;0.60;;;0.20;;
41532;SDS011;27262;-35.248;149.138;2023-05-07T00:10:04;2.42;;;0.30;;
41532;SDS011;27262;-35.248;149.138;2023-05-07T00:12:36;2.55;;;0.32;;
41532;SDS011;27262;-35.248;149.138;2023-05-07T00:15:06;2.75;;;0.22;;
41532;SDS011;27262;-35.248;149.138;2023-05-07T00:17:37;2.75;;;0.20;;
41532;SDS011;27262;-35.248;149.138;2023-05-07T00:20:08;7.07;;;0.50;;
41532;SDS011;27262;-35.248;149.138;2023-05-07T00:22:39;0.60;;;0.30;;
41532;SDS011;27262;-35.248;149.138;2023-05-07T00:25:09;3.03;;;0.30;;
41532;SDS011;27262;-35.248;149.138;2023-05-07T00:27:39;0.25;;;0.25;;
41532;SDS011;27262;-35.248;149.138;2023-05-07T00:30:10;2.60;;;0.30;;
41532;SDS011;27262;-35.248;149.138;2023-05-07T00:32:40;2.40;;;0.38;;
41532;SDS011;27262;-35.248;149.138;2023-05-07T00:35:13;4.50;;;0.32;;
41532;SDS011;27262;-35.248;149.138;2023-05-07T00:37:44;1.88;;;0.30;;
41532;SDS011;27262;-35.248;149.138;2023-05-07T00:40:14;6.95;;;0.40;;
41532;SDS011;27262;-35.248;149.138;2023-05-07T00:42:44;2.10;;;0.50;;
41532;SDS011;27262;-35.248;149.138;2023-05-07T00:45:15;2.88;;;0.40;;
41532;SDS011;27262;-35.248;149.138;2023-05-07T00:47:46;3.03;;;0.40;;
41532;SDS011;27262;-35.248;149.138;2023-05-07T00:50:16;9.02;;;0.52;;
41532;SDS011;27262;-35.248;149.138;2023-05-07T00:52:47;2.50;;;0.30;;
41532;SDS011;27262;-35.248;149.138;2023-05-07T00:55:18;3.70;;;0.43;;
41532;SDS011;27262;-35.248;149.138;2023-05-07T00:57:48;2.50;;;0.40;;
41532;SDS011;27262;-35.248;149.138;2023-05-07T01:00:19;3.20;;;0.30;;
41532;SDS011;27262;-35.248;149.138;2023-05-07T01:02:50;2.33;;;0.30;;
41532;SDS011;27262;-35.248;149.138;2023-05-07T01:05:21;6.63;;;0.40;;
41532;SDS011;27262;-35.248;149.138;2023-05-07T01:07:54;1.67;;;0.40;;
41532;SDS011;27262;-35.248;149.138;2023-05-07T01:10:25;0.95;;;0.52;;
41532;SDS011;27262;-35.248;149.138;2023-05-07T01:12:59;4.35;;;0.60;;
41532;SDS011;27262;-35.248;149.138;2023-05-07T01:15:29;3.83;;;0.40;;
41532;SDS011;27262;-35.248;149.138;2023-05-07T01:18:00;1.73;;;0.43;;
41532;SDS011;27262;-35.248;149.138;2023-05-07T01:20:30;1.75;;;0.30;;
41532;SDS011;27262;-35.248;149.138;2023-05-07T01:23:00;1.38;;;0.40;;
41532;SDS011;27262;-35.248;149.138;2023-05-07T01:25:32;0.45;;;0.22;;
41532;SDS011;27262;-35.248;149.138;2023-05-07T01:28:02;1.00;;;0.22;;
41532;SDS011;27262;-35.248;149.138;2023-05-07T01:30:34;1.55;;;0.30;;
41532;SDS011;27262;-35.248;149.138;2023-05-07T01:33:08;1.20;;;0.30;;
41532;SDS011;27262;-35.248;149.138;2023-05-07T01:35:44;2.38;;;0.30;;
41532;SDS011;27262;-35.248;149.138;2023-05-07T01:38:16;0.90;;;0.30;;
41532;SDS011;27262;-35.248;149.138;2023-05-07T01:40:56;0.50;;;0.30;;
41532;SDS011;27262;-35.248;149.138;2023-05-07T01:43:28;2.72;;;0.47;;
41532;SDS011;27262;-35.248;149.138;2023-05-07T01:45:59;0.98;;;0.30;;
41532;SDS011;27262;-35.248;149.138;2023-05-07T01:48:32;1.38;;;0.30;;
41532;SDS011;27262;-35.248;149.138;2023-05-07T01:51:03;0.90;;;0.30;;
41532;SDS011;27262;-35.248;149.138;2023-05-07T01:53:38;0.45;;;0.22;;
41532;SDS011;27262;-35.248;149.138;2023-05-07T01:56:09;0.88;;;0.50;;
41532;SDS011;27262;-35.248;149.138;2023-05-07T01:58:39;1.08;;;0.30;;
41532;SDS011;27262;-35.248;149.138;2023-05-07T02:01:10;0.30;;;0.20;;
41532;SDS011;27262;-35.248;149.138;2023-05-07T02:03:40;1.55;;;0.20;;
41532;SDS011;27262;-35.248;149.138;2023-05-07T02:06:10;0.85;;;0.30;;
41532;SDS011;27262;-35.248;149.138;2023-05-07T02:08:41;1.42;;;0.50;;
41532;SDS011;27262;-35.248;149.138;2023-05-07T02:11:11;0.20;;;0.20;;
41532;SDS011;27262;-35.248;149.138;2023-05-07T02:13:42;0.40;;;0.20;;
41532;SDS011;27262;-35.248;149.138;2023-05-07T02:16:12;1.35;;;0.45;;
41532;SDS011;27262;-35.248;149.138;2023-05-07T02:18:43;0.30;;;0.25;;
41532;SDS011;27262;-35.248;149.138;2023-05-07T02:21:13;0.20;;;0.20;;
41532;SDS011;27262;-35.248;149.138;2023-05-07T02:23:43;0.60;;;0.20;;
41532;SDS011;27262;-35.248;149.138;2023-05-07T02:26:14;0.52;;;0.20;;
41532;SDS011;27262;-35.248;149.138;2023-05-07T02:28:44;0.25;;;0.10;;
41532;SDS011;27262;-35.248;149.138;2023-05-07T02:31:15;0.22;;;0.20;;
41532;SDS011;27262;-35.248;149.138;2023-05-07T02:33:46;0.38;;;0.28;;
41532;SDS011;27262;-35.248;149.138;2023-05-07T02:36:16;0.73;;;0.30;;
41532;SDS011;27262;-35.248;149.138;2023-05-07T02:38:46;0.38;;;0.30;;
41532;SDS011;27262;-35.248;149.138;2023-05-07T02:41:17;0.57;;;0.20;;
41532;SDS011;27262;-35.248;149.138;2023-05-07T02:43:47;0.38;;;0.20;;
41532;SDS011;27262;-35.248;149.138;2023-05-07T02:46:17;0.35;;;0.20;;
41532;SDS011;27262;-35.248;149.138;2023-05-07T02:48:48;0.10;;;0.10;;
41532;SDS011;27262;-35.248;149.138;2023-05-07T02:51:21;2.05;;;0.30;;
41532;SDS011;27262;-35.248;149.138;2023-05-07T02:53:52;0.30;;;0.30;;
41532;SDS011;27262;-35.248;149.138;2023-05-07T02:56:22;0.22;;;0.20;;
41532;SDS011;27262;-35.248;149.138;2023-05-07T02:58:55;1.25;;;0.28;;
41532;SDS011;27262;-35.248;149.138;2023-05-07T03:01:25;0.45;;;0.20;;
41532;SDS011;27262;-35.248;149.138;2023-05-07T03:03:55;2.25;;;0.20;;
41532;SDS011;27262;-35.248;149.138;2023-05-07T03:06:26;0.30;;;0.17;;
41532;SDS011;27262;-35.248;149.138;2023-05-07T03:08:56;0.10;;;0.10;;
41532;SDS011;27262;-35.248;149.138;2023-05-07T03:11:27;0.60;;;0.22;;
41532;SDS011;27262;-35.248;149.138;2023-05-07T03:13:57;0.60;;;0.30;;
41532;SDS011;27262;-35.248;149.138;2023-05-07T03:16:27;0.75;;;0.30;;
41532;SDS011;27262;-35.248;149.138;2023-05-07T03:18:58;0.88;;;0.40;;
41532;SDS011;27262;-35.248;149.138;2023-05-07T03:21:29;0.40;;;0.20;;
41532;SDS011;27262;-35.248;149.138;2023-05-07T03:24:02;0.25;;;0.20;;
41532;SDS011;27262;-35.248;149.138;2023-05-07T03:26:32;0.35;;;0.30;;
41532;SDS011;27262;-35.248;149.138;2023-05-07T03:29:02;0.22;;;0.20;;
41532;SDS011;27262;-35.248;149.138;2023-05-07T03:31:33;1.27;;;0.28;;
41532;SDS011;27262;-35.248;149.138;2023-05-07T03:34:03;0.30;;;0.20;;
41532;SDS011;27262;-35.248;149.138;2023-05-07T03:36:34;0.43;;;0.20;;
41532;SDS011;27262;-35.248;149.138;2023-05-07T03:39:04;0.35;;;0.28;;
41532;SDS011;27262;-35.248;149.138;2023-05-07T03:41:34;1.15;;;0.25;;
41532;SDS011;27262;-35.248;149.138;2023-05-07T03:44:04;0.43;;;0.30;;
41532;SDS011;27262;-35.248;149.138;2023-05-07T03:46:35;1.35;;;0.50;;
41532;SDS011;27262;-35.248;149.138;2023-05-07T03:49:05;1.33;;;0.22;;
41532;SDS011;27262;-35.248;149.138;2023-05-07T03:51:36;0.30;;;0.30;;
41532;SDS011;27262;-35.248;149.138;2023-05-07T03:54:06;0.90;;;0.30;;
41532;SDS011;27262;-35.248;149.138;2023-05-07T03:56:36;0.30;;;0.20;;
41532;SDS011;27262;-35.248;149.138;2023-05-07T03:59:07;2.08;;;0.40;;
41532;SDS011;27262;-35.248;149.138;2023-05-07T04:01:37;0.20;;;0.20;;
41532;SDS011;27262;-35.248;149.138;2023-05-07T04:04:07;1.10;;;0.30;;
41532;SDS011;27262;-35.248;149.138;2023-05-07T04:06:38;0.57;;;0.20;;
41532;SDS011;27262;-35.248;149.138;2023-05-07T04:09:08;4.88;;;0.43;;
41532;SDS011;27262;-35.248;149.138;2023-05-07T04:11:39;0.30;;;0.20;;
41532;SDS011;27262;-35.248;149.138;2023-05-07T04:14:09;1.00;;;0.22;;
41532;SDS011;27262;-35.248;149.138;2023-05-07T04:16:39;0.65;;;0.30;;
41532;SDS011;27262;-35.248;149.138;2023-05-07T04:19:10;0.40;;;0.20;;
41532;SDS011;27262;-35.248;149.138;2023-05-07T04:21:40;2.30;;;0.30;;
41532;SDS011;27262;-35.248;149.138;2023-05-07T04:24:10;0.88;;;0.20;;
41532;SDS011;27262;-35.248;149.138;2023-05-07T04:26:41;1.65;;;0.30;;
41532;SDS011;27262;-35.248;149.138;2023-05-07T04:29:11;0.38;;;0.20;;
41532;SDS011;27262;-35.248;149.138;2023-05-07T04:31:41;1.10;;;0.20;;
41532;SDS011;27262;-35.248;149.138;2023-05-07T04:34:14;0.52;;;0.20;;
41532;SDS011;27262;-35.248;149.138;2023-05-07T04:36:45;0.40;;;0.20;;
41532;SDS011;27262;-35.248;149.138;2023-05-07T04:39:16;0.68;;;0.35;;
41532;SDS011;27262;-35.248;149.138;2023-05-07T04:41:46;0.80;;;0.30;;
41532;SDS011;27262;-35.248;149.138;2023-05-07T04:44:17;0.30;;;0.20;;
41532;SDS011;27262;-35.248;149.138;2023-05-07T04:46:47;0.20;;;0.20;;
41532;SDS011;27262;-35.248;149.138;2023-05-07T04:49:18;0.60;;;0.40;;
41532;SDS011;27262;-35.248;149.138;2023-05-07T04:51:48;0.45;;;0.20;;
41532;SDS011;27262;-35.248;149.138;2023-05-07T04:54:19;0.25;;;0.20;;
41532;SDS011;27262;-35.248;149.138;2023-05-07T04:56:49;0.20;;;0.20;;
41532;SDS011;27262;-35.248;149.138;2023-05-07T04:59:19;0.77;;;0.30;;
41532;SDS011;27262;-35.248;149.138;2023-05-07T05:01:49;0.82;;;0.20;;
41532;SDS011;27262;-35.248;149.138;2023-05-07T05:04:20;2.35;;;0.30;;
41532;SDS011;27262;-35.248;149.138;2023-05-07T05:06:50;0.40;;;0.20;;
41532;SDS011;27262;-35.248;149.138;2023-05-07T05:09:20;0.20;;;0.20;;
41532;SDS011;27262;-35.248;149.138;2023-05-07T05:11:51;0.30;;;0.20;;
41532;SDS011;27262;-35.248;149.138;2023-05-07T05:14:21;0.20;;;0.20;;
41532;SDS011;27262;-35.248;149.138;2023-05-07T05:16:52;1.10;;;0.30;;
41532;SDS011;27262;-35.248;149.138;2023-05-07T05:19:22;0.52;;;0.30;;
41532;SDS011;27262;-35.248;149.138;2023-05-07T05:21:53;0.90;;;0.25;;
41532;SDS011;27262;-35.248;149.138;2023-05-07T05:24:23;1.27;;;0.20;;
41532;SDS011;27262;-35.248;149.138;2023-05-07T05:26:54;0.40;;;0.30;;
41532;SDS011;27262;-35.248;149.138;2023-05-07T05:29:24;0.82;;;0.20;;
41532;SDS011;27262;-35.248;149.138;2023-05-07T05:31:55;0.30;;;0.20;;
41532;SDS011;27262;-35.248;149.138;2023-05-07T05:34:25;2.50;;;0.40;;
41532;SDS011;27262;-35.248;149.138;2023-05-07T05:36:56;0.80;;;0.40;;
41532;SDS011;27262;-35.248;149.138;2023-05-07T05:39:27;1.65;;;0.30;;
41532;SDS011;27262;-35.248;149.138;2023-05-07T05:41:57;2.08;;;0.38;;
41532;SDS011;27262;-35.248;149.138;2023-05-07T05:44:28;0.70;;;0.40;;
41532;SDS011;27262;-35.248;149.138;2023-05-07T05:46:58;0.57;;;0.20;;
41532;SDS011;27262;-35.248;149.138;2023-05-07T05:49:28;1.45;;;0.50;;
41532;SDS011;27262;-35.248;149.138;2023-05-07T05:51:59;2.38;;;0.20;;
41532;SDS011;27262;-35.248;149.138;2023-05-07T05:54:29;1.55;;;0.20;;
41532;SDS011;27262;-35.248;149.138;2023-05-07T05:56:59;0.30;;;0.30;;
41532;SDS011;27262;-35.248;149.138;2023-05-07T05:59:32;2.22;;;0.38;;
41532;SDS011;27262;-35.248;149.138;2023-05-07T06:02:02;0.95;;;0.30;;
41532;SDS011;27262;-35.248;149.138;2023-05-07T06:04:33;0.52;;;0.30;;
41532;SDS011;27262;-35.248;149.138;2023-05-07T06:07:03;0.50;;;0.30;;
41532;SDS011;27262;-35.248;149.138;2023-05-07T06:09:34;0.50;;;0.20;;
41532;SDS011;27262;-35.248;149.138;2023-05-07T06:12:04;0.50;;;0.22;;
41532;SDS011;27262;-35.248;149.138;2023-05-07T06:14:35;0.70;;;0.40;;
41532;SDS011;27262;-35.248;149.138;2023-05-07T06:17:05;0.63;;;0.30;;
41532;SDS011;27262;-35.248;149.138;2023-05-07T06:19:35;0.82;;;0.32;;
41532;SDS011;27262;-35.248;149.138;2023-05-07T06:22:06;1.98;;;0.30;;
41532;SDS011;27262;-35.248;149.138;2023-05-07T06:24:36;1.75;;;0.30;;
41532;SDS011;27262;-35.248;149.138;2023-05-07T06:27:06;0.82;;;0.30;;
41532;SDS011;27262;-35.248;149.138;2023-05-07T06:29:36;1.40;;;0.22;;
41532;SDS011;27262;-35.248;149.138;2023-05-07T06:32:07;0.88;;;0.38;;
41532;SDS011;27262;-35.248;149.138;2023-05-07T06:34:39;1.42;;;0.30;;
41532;SDS011;27262;-35.248;149.138;2023-05-07T06:37:10;1.80;;;0.52;;
41532;SDS011;27262;-35.248;149.138;2023-05-07T06:39:40;2.03;;;0.30;;
41532;SDS011;27262;-35.248;149.138;2023-05-07T06:42:10;0.25;;;0.25;;
41532;SDS011;27262;-35.248;149.138;2023-05-07T06:44:40;1.33;;;0.47;;
41532;SDS011;27262;-35.248;149.138;2023-05-07T06:47:11;0.77;;;0.25;;
41532;SDS011;27262;-35.248;149.138;2023-05-07T06:49:42;0.60;;;0.20;;
41532;SDS011;27262;-35.248;149.138;2023-05-07T06:52:13;0.57;;;0.20;;
41532;SDS011;27262;-35.248;149.138;2023-05-07T06:54:43;1.75;;;0.30;;
41532;SDS011;27262;-35.248;149.138;2023-05-07T06:57:13;1.23;;;0.30;;
41532;SDS011;27262;-35.248;149.138;2023-05-07T06:59:43;1.27;;;0.20;;
41532;SDS011;27262;-35.248;149.138;2023-05-07T07:02:13;2.92;;;0.30;;
41532;SDS011;27262;-35.248;149.138;2023-05-07T07:04:44;0.20;;;0.20;;
41532;SDS011;27262;-35.248;149.138;2023-05-07T07:07:14;2.15;;;0.40;;
41532;SDS011;27262;-35.248;149.138;2023-05-07T07:09:45;0.22;;;0.20;;
41532;SDS011;27262;-35.248;149.138;2023-05-07T07:12:15;1.13;;;0.65;;
41532;SDS011;27262;-35.248;149.138;2023-05-07T07:14:45;1.48;;;0.30;;
41532;SDS011;27262;-35.248;149.138;2023-05-07T07:17:15;1.17;;;0.30;;
41532;SDS011;27262;-35.248;149.138;2023-05-07T07:19:46;3.38;;;0.50;;
41532;SDS011;27262;-35.248;149.138;2023-05-07T07:22:16;2.88;;;0.60;;
41532;SDS011;27262;-35.248;149.138;2023-05-07T07:24:46;1.25;;;0.47;;
41532;SDS011;27262;-35.248;149.138;2023-05-07T07:27:16;1.30;;;0.50;;
41532;SDS011;27262;-35.248;149.138;2023-05-07T07:29:47;1.00;;;0.40;;
41532;SDS011;27262;-35.248;149.138;2023-05-07T07:32:17;0.80;;;0.30;;
41532;SDS011;27262;-35.248;149.138;2023-05-07T07:34:48;1.23;;;0.40;;
41532;SDS011;27262;-35.248;149.138;2023-05-07T07:37:18;0.65;;;0.28;;
41532;SDS011;27262;-35.248;149.138;2023-05-07T07:39:48;3.20;;;0.70;;
41532;SDS011;27262;-35.248;149.138;2023-05-07T07:42:18;1.02;;;0.38;;
41532;SDS011;27262;-35.248;149.138;2023-05-07T07:44:49;1.08;;;0.40;;
41532;SDS011;27262;-35.248;149.138;2023-05-07T07:47:19;3.35;;;0.30;;
41532;SDS011;27262;-35.248;149.138;2023-05-07T07:49:49;0.43;;;0.30;;
41532;SDS011;27262;-35.248;149.138;2023-05-07T07:52:20;0.52;;;0.30;;
41532;SDS011;27262;-35.248;149.138;2023-05-07T07:54:50;0.70;;;0.30;;
41532;SDS011;27262;-35.248;149.138;2023-05-07T07:57:20;0.40;;;0.25;;
41532;SDS011;27262;-35.248;149.138;2023-05-07T07:59:50;1.38;;;0.30;;
41532;SDS011;27262;-35.248;149.138;2023-05-07T08:02:21;2.55;;;0.40;;
41532;SDS011;27262;-35.248;149.138;2023-05-07T08:04:51;5.25;;;0.95;;
41532;SDS011;27262;-35.248;149.138;2023-05-07T08:07:22;1.10;;;0.30;;
41532;SDS011;27262;-35.248;149.138;2023-05-07T08:09:52;0.30;;;0.30;;
41532;SDS011;27262;-35.248;149.138;2023-05-07T08:12:23;1.23;;;0.40;;
41532;SDS011;27262;-35.248;149.138;2023-05-07T08:14:54;1.17;;;0.40;;
41532;SDS011;27262;-35.248;149.138;2023-05-07T08:17:24;2.17;;;0.40;;
41532;SDS011;27262;-35.248;149.138;2023-05-07T08:19:54;0.98;;;0.40;;
41532;SDS011;27262;-35.248;149.138;2023-05-07T08:22:25;1.98;;;0.43;;
41532;SDS011;27262;-35.248;149.138;2023-05-07T08:24:55;0.80;;;0.43;;
41532;SDS011;27262;-35.248;149.138;2023-05-07T08:27:25;0.98;;;0.50;;
41532;SDS011;27262;-35.248;149.138;2023-05-07T08:29:56;3.03;;;0.70;;
41532;SDS011;27262;-35.248;149.138;2023-05-07T08:32:26;1.42;;;0.50;;
41532;SDS011;27262;-35.248;149.138;2023-05-07T08:34:56;2.78;;;0.50;;
41532;SDS011;27262;-35.248;149.138;2023-05-07T08:37:27;1.77;;;0.60;;
41532;SDS011;27262;-35.248;149.138;2023-05-07T08:39:57;1.10;;;0.70;;
41532;SDS011;27262;-35.248;149.138;2023-05-07T08:42:27;2.28;;;0.40;;
41532;SDS011;27262;-35.248;149.138;2023-05-07T08:44:58;0.73;;;0.50;;
41532;SDS011;27262;-35.248;149.138;2023-05-07T08:47:34;1.58;;;0.60;;
41532;SDS011;27262;-35.248;149.138;2023-05-07T08:50:09;2.70;;;0.88;;
41532;SDS011;27262;-35.248;149.138;2023-05-07T08:52:40;1.70;;;0.57;;
41532;SDS011;27262;-35.248;149.138;2023-05-07T08:55:11;0.93;;;0.52;;
41532;SDS011;27262;-35.248;149.138;2023-05-07T08:57:43;1.48;;;0.80;;
41532;SDS011;27262;-35.248;149.138;2023-05-07T09:00:14;1.35;;;0.70;;
41532;SDS011;27262;-35.248;149.138;2023-05-07T09:02:44;1.20;;;0.60;;
41532;SDS011;27262;-35.248;149.138;2023-05-07T09:05:15;1.35;;;0.50;;
41532;SDS011;27262;-35.248;149.138;2023-05-07T09:07:45;0.47;;;0.47;;
41532;SDS011;27262;-35.248;149.138;2023-05-07T09:10:18;0.82;;;0.50;;
41532;SDS011;27262;-35.248;149.138;2023-05-07T09:12:49;0.68;;;0.50;;
41532;SDS011;27262;-35.248;149.138;2023-05-07T09:15:20;0.80;;;0.55;;
41532;SDS011;27262;-35.248;149.138;2023-05-07T09:17:51;0.60;;;0.50;;
41532;SDS011;27262;-35.248;149.138;2023-05-07T09:20:21;1.58;;;0.55;;
41532;SDS011;27262;-35.248;149.138;2023-05-07T09:22:51;1.42;;;0.60;;
41532;SDS011;27262;-35.248;149.138;2023-05-07T09:25:30;0.70;;;0.60;;
41532;SDS011;27262;-35.248;149.138;2023-05-07T09:28:02;1.23;;;0.50;;
41532;SDS011;27262;-35.248;149.138;2023-05-07T09:30:35;1.50;;;0.50;;
41532;SDS011;27262;-35.248;149.138;2023-05-07T09:33:07;0.50;;;0.43;;
41532;SDS011;27262;-35.248;149.138;2023-05-07T09:35:37;0.70;;;0.50;;
41532;SDS011;27262;-35.248;149.138;2023-05-07T09:38:08;0.50;;;0.40;;
41532;SDS011;27262;-35.248;149.138;2023-05-07T09:40:39;0.55;;;0.55;;
41532;SDS011;27262;-35.248;149.138;2023-05-07T09:43:09;0.50;;;0.50;;
41532;SDS011;27262;-35.248;149.138;2023-05-07T09:45:41;0.98;;;0.50;;
41532;SDS011;27262;-35.248;149.138;2023-05-07T09:48:12;1.55;;;0.60;;
41532;SDS011;27262;-35.248;149.138;2023-05-07T09:50:48;2.53;;;0.80;;
41532;SDS011;27262;-35.248;149.138;2023-05-07T09:53:20;1.77;;;0.63;;
41532;SDS011;27262;-35.248;149.138;2023-05-07T09:55:51;1.13;;;0.70;;
41532;SDS011;27262;-35.248;149.138;2023-05-07T09:58:23;0.93;;;0.65;;
41532;SDS011;27262;-35.248;149.138;2023-05-07T10:00:56;0.93;;;0.50;;
41532;SDS011;27262;-35.248;149.138;2023-05-07T10:03:26;0.77;;;0.60;;
41532;SDS011;27262;-35.248;149.138;2023-05-07T10:06:01;0.60;;;0.50;;
41532;SDS011;27262;-35.248;149.138;2023-05-07T10:08:32;0.50;;;0.47;;
41532;SDS011;27262;-35.248;149.138;2023-05-07T10:11:04;1.25;;;0.60;;
41532;SDS011;27262;-35.248;149.138;2023-05-07T10:13:37;1.25;;;0.80;;
41532;SDS011;27262;-35.248;149.138;2023-05-07T10:16:07;1.00;;;0.60;;
41532;SDS011;27262;-35.248;149.138;2023-05-07T10:18:37;0.75;;;0.65;;
41532;SDS011;27262;-35.248;149.138;2023-05-07T10:21:19;1.33;;;0.85;;
41532;SDS011;27262;-35.248;149.138;2023-05-07T10:24:05;0.82;;;0.60;;
41532;SDS011;27262;-35.248;149.138;2023-05-07T10:26:45;1.17;;;0.65;;
41532;SDS011;27262;-35.248;149.138;2023-05-07T10:35:16;1.05;;;0.77;;
41532;SDS011;27262;-35.248;149.138;2023-05-07T10:37:55;0.90;;;0.63;;
41532;SDS011;27262;-35.248;149.138;2023-05-07T10:40:25;2.40;;;0.73;;
41532;SDS011;27262;-35.248;149.138;2023-05-07T10:42:57;1.20;;;0.60;;
41532;SDS011;27262;-35.248;149.138;2023-05-07T10:45:34;0.50;;;0.40;;
41532;SDS011;27262;-35.248;149.138;2023-05-07T10:48:08;2.95;;;0.80;;
41532;SDS011;27262;-35.248;149.138;2023-05-07T10:56:41;2.20;;;0.50;;
41532;SDS011;27262;-35.248;149.138;2023-05-07T11:01:50;3.90;;;0.60;;
41532;SDS011;27262;-35.248;149.138;2023-05-07T11:04:24;1.83;;;0.47;;
41532;SDS011;27262;-35.248;149.138;2023-05-07T11:15:13;1.58;;;0.60;;
41532;SDS011;27262;-35.248;149.138;2023-05-07T11:17:53;2.03;;;0.55;;
41532;SDS011;27262;-35.248;149.138;2023-05-07T11:26:09;2.08;;;0.50;;
41532;SDS011;27262;-35.248;149.138;2023-05-07T11:28:40;0.90;;;0.60;;
41532;SDS011;27262;-35.248;149.138;2023-05-07T11:31:11;0.55;;;0.50;;
41532;SDS011;27262;-35.248;149.138;2023-05-07T11:33:43;1.42;;;0.43;;
41532;SDS011;27262;-35.248;149.138;2023-05-07T11:36:13;0.73;;;0.60;;
41532;SDS011;27262;-35.248;149.138;2023-05-07T11:38:44;0.80;;;0.55;;
41532;SDS011;27262;-35.248;149.138;2023-05-07T11:41:15;0.65;;;0.65;;
41532;SDS011;27262;-35.248;149.138;2023-05-07T11:43:54;1.08;;;0.60;;
41532;SDS011;27262;-35.248;149.138;2023-05-07T11:46:26;0.52;;;0.50;;
41532;SDS011;27262;-35.248;149.138;2023-05-07T11:48:57;1.42;;;0.65;;
41532;SDS011;27262;-35.248;149.138;2023-05-07T11:51:29;0.60;;;0.50;;
41532;SDS011;27262;-35.248;149.138;2023-05-07T11:54:03;0.50;;;0.50;;
41532;SDS011;27262;-35.248;149.138;2023-05-07T11:56:37;0.80;;;0.57;;
41532;SDS011;27262;-35.248;149.138;2023-05-07T11:59:07;1.00;;;0.70;;
41532;SDS011;27262;-35.248;149.138;2023-05-07T12:01:38;1.45;;;0.45;;
41532;SDS011;27262;-35.248;149.138;2023-05-07T12:04:08;1.23;;;0.57;;
41532;SDS011;27262;-35.248;149.138;2023-05-07T12:06:39;0.45;;;0.40;;
41532;SDS011;27262;-35.248;149.138;2023-05-07T12:09:09;0.40;;;0.40;;
41532;SDS011;27262;-35.248;149.138;2023-05-07T12:11:40;0.75;;;0.55;;
41532;SDS011;27262;-35.248;149.138;2023-05-07T12:14:15;1.05;;;0.50;;
41532;SDS011;27262;-35.248;149.138;2023-05-07T12:16:45;0.40;;;0.40;;
41532;SDS011;27262;-35.248;149.138;2023-05-07T12:19:16;0.60;;;0.50;;
41532;SDS011;27262;-35.248;149.138;2023-05-07T12:21:47;2.03;;;0.50;;
41532;SDS011;27262;-35.248;149.138;2023-05-07T12:24:18;0.80;;;0.80;;
41532;SDS011;27262;-35.248;149.138;2023-05-07T12:26:49;0.75;;;0.55;;
41532;SDS011;27262;-35.248;149.138;2023-05-07T12:29:22;1.13;;;0.40;;
41532;SDS011;27262;-35.248;149.138;2023-05-07T12:31:52;0.75;;;0.55;;
41532;SDS011;27262;-35.248;149.138;2023-05-07T12:34:23;2.30;;;0.60;;
41532;SDS011;27262;-35.248;149.138;2023-05-07T12:36:53;1.88;;;0.50;;
41532;SDS011;27262;-35.248;149.138;2023-05-07T12:39:24;0.93;;;0.60;;
41532;SDS011;27262;-35.248;149.138;2023-05-07T12:41:58;1.10;;;0.43;;
41532;SDS011;27262;-35.248;149.138;2023-05-07T12:44:29;0.45;;;0.30;;
41532;SDS011;27262;-35.248;149.138;2023-05-07T12:47:03;0.40;;;0.40;;
41532;SDS011;27262;-35.248;149.138;2023-05-07T12:49:34;0.50;;;0.40;;
41532;SDS011;27262;-35.248;149.138;2023-05-07T12:52:08;0.40;;;0.40;;
41532;SDS011;27262;-35.248;149.138;2023-05-07T12:54:40;0.30;;;0.30;;
41532;SDS011;27262;-35.248;149.138;2023-05-07T12:57:10;0.60;;;0.50;;
41532;SDS011;27262;-35.248;149.138;2023-05-07T12:59:41;1.23;;;0.60;;
41532;SDS011;27262;-35.248;149.138;2023-05-07T13:02:11;0.60;;;0.50;;
41532;SDS011;27262;-35.248;149.138;2023-05-07T13:04:41;0.57;;;0.45;;
41532;SDS011;27262;-35.248;149.138;2023-05-07T13:07:12;1.85;;;0.40;;
41532;SDS011;27262;-35.248;149.138;2023-05-07T13:09:42;0.82;;;0.52;;
41532;SDS011;27262;-35.248;149.138;2023-05-07T13:12:13;0.90;;;0.50;;
41532;SDS011;27262;-35.248;149.138;2023-05-07T13:14:43;0.50;;;0.50;;
41532;SDS011;27262;-35.248;149.138;2023-05-07T13:17:13;0.38;;;0.38;;
41532;SDS011;27262;-35.248;149.138;2023-05-07T13:19:43;0.90;;;0.50;;
41532;SDS011;27262;-35.248;149.138;2023-05-07T13:22:14;0.90;;;0.60;;
41532;SDS011;27262;-35.248;149.138;2023-05-07T13:24:44;0.70;;;0.50;;
41532;SDS011;27262;-35.248;149.138;2023-05-07T13:27:14;0.35;;;0.35;;
41532;SDS011;27262;-35.248;149.138;2023-05-07T13:29:44;0.70;;;0.47;;
41532;SDS011;27262;-35.248;149.138;2023-05-07T13:32:15;0.52;;;0.40;;
41532;SDS011;27262;-35.248;149.138;2023-05-07T13:34:45;0.57;;;0.50;;
41532;SDS011;27262;-35.248;149.138;2023-05-07T13:37:15;0.38;;;0.38;;
41532;SDS011;27262;-35.248;149.138;2023-05-07T13:39:45;0.63;;;0.40;;
41532;SDS011;27262;-35.248;149.138;2023-05-07T13:42:16;0.40;;;0.40;;
41532;SDS011;27262;-35.248;149.138;2023-05-07T13:44:46;0.40;;;0.40;;
41532;SDS011;27262;-35.248;149.138;2023-05-07T13:47:16;0.38;;;0.38;;
41532;SDS011;27262;-35.248;149.138;2023-05-07T13:49:48;0.77;;;0.40;;
41532;SDS011;27262;-35.248;149.138;2023-05-07T13:52:19;0.75;;;0.30;;
41532;SDS011;27262;-35.248;149.138;2023-05-07T13:54:49;0.60;;;0.40;;
41532;SDS011;27262;-35.248;149.138;2023-05-07T13:57:20;0.98;;;0.50;;
41532;SDS011;27262;-35.248;149.138;2023-05-07T13:59:51;1.42;;;0.50;;
41532;SDS011;27262;-35.248;149.138;2023-05-07T14:02:21;0.68;;;0.30;;
41532;SDS011;27262;-35.248;149.138;2023-05-07T14:04:52;0.60;;;0.43;;
41532;SDS011;27262;-35.248;149.138;2023-05-07T14:07:23;0.50;;;0.32;;
41532;SDS011;27262;-35.248;149.138;2023-05-07T14:09:54;0.45;;;0.40;;
41532;SDS011;27262;-35.248;149.138;2023-05-07T14:12:25;0.52;;;0.38;;
41532;SDS011;27262;-35.248;149.138;2023-05-07T14:14:55;0.60;;;0.40;;
41532;SDS011;27262;-35.248;149.138;2023-05-07T14:17:25;0.40;;;0.30;;
41532;SDS011;27262;-35.248;149.138;2023-05-07T14:19:56;0.47;;;0.40;;
41532;SDS011;27262;-35.248;149.138;2023-05-07T14:22:27;0.30;;;0.30;;
41532;SDS011;27262;-35.248;149.138;2023-05-07T14:24:57;0.57;;;0.40;;
41532;SDS011;27262;-35.248;149.138;2023-05-07T14:27:33;0.73;;;0.47;;
41532;SDS011;27262;-35.248;149.138;2023-05-07T14:30:03;0.45;;;0.30;;
41532;SDS011;27262;-35.248;149.138;2023-05-07T14:32:34;0.30;;;0.30;;
41532;SDS011;27262;-35.248;149.138;2023-05-07T14:35:05;0.40;;;0.35;;
41532;SDS011;27262;-35.248;149.138;2023-05-07T14:37:35;0.90;;;0.55;;
41532;SDS011;27262;-35.248;149.138;2023-05-07T14:40:06;0.75;;;0.45;;
41532;SDS011;27262;-35.248;149.138;2023-05-07T14:42:37;0.50;;;0.30;;
41532;SDS011;27262;-35.248;149.138;2023-05-07T14:45:07;0.30;;;0.30;;
41532;SDS011;27262;-35.248;149.138;2023-05-07T14:47:38;0.43;;;0.30;;
41532;SDS011;27262;-35.248;149.138;2023-05-07T14:50:09;0.30;;;0.30;;
41532;SDS011;27262;-35.248;149.138;2023-05-07T14:52:39;0.43;;;0.40;;
41532;SDS011;27262;-35.248;149.138;2023-05-07T14:55:09;0.35;;;0.35;;
41532;SDS011;27262;-35.248;149.138;2023-05-07T14:57:40;0.47;;;0.35;;
41532;SDS011;27262;-35.248;149.138;2023-05-07T15:00:11;0.40;;;0.40;;